createdAt,value
2018-07-27T00:00:25.005Z,77.68
2018-07-27T00:02:53.721Z,78.03
2018-07-27T00:05:22.492Z,78.77
2018-07-27T00:07:51.234Z,78.54
2018-07-27T00:10:20.300Z,78.12
2018-07-27T00:12:49.424Z,78.54
2018-07-27T00:15:18.099Z,78.98
2018-07-27T00:17:46.895Z,78.75
2018-07-27T00:20:15.677Z,79.18
2018-07-27T00:22:44.379Z,80.35
2018-07-27T00:25:13.153Z,79.41
2018-07-27T00:27:41.906Z,80.10
2018-07-27T00:30:10.679Z,80.02
2018-07-27T00:32:39.453Z,79.87
2018-07-27T00:35:08.199Z,79.57
2018-07-27T00:37:36.904Z,79.41
2018-07-27T00:40:05.746Z,79.99
2018-07-27T00:42:34.436Z,80.25
2018-07-27T00:45:03.205Z,81.03
2018-07-27T00:47:31.914Z,80.57
2018-07-27T00:50:00.679Z,80.51
2018-07-27T00:52:29.464Z,80.19
2018-07-27T00:54:58.260Z,79.43
2018-07-27T00:57:26.984Z,79.94
2018-07-27T00:59:55.912Z,79.80
2018-07-27T01:02:24.724Z,80.43
2018-07-27T01:04:59.001Z,80.61
2018-07-27T01:07:27.740Z,79.87
2018-07-27T01:09:56.580Z,79.64
2018-07-27T01:12:25.302Z,78.70
2018-07-27T01:14:54.065Z,78.37
2018-07-27T01:17:22.849Z,78.03
2018-07-27T01:19:51.748Z,79.21
2018-07-27T01:22:20.517Z,79.81
2018-07-27T01:24:49.207Z,79.73
2018-07-27T01:27:18.002Z,79.86
2018-07-27T01:29:46.737Z,79.22
2018-07-27T01:32:15.524Z,79.46
2018-07-27T01:34:44.231Z,79.84
2018-07-27T01:37:12.950Z,80.52
2018-07-27T01:39:41.664Z,80.73
2018-07-27T01:42:10.396Z,80.56
2018-07-27T01:44:39.143Z,80.77
2018-07-27T01:47:07.946Z,80.74
2018-07-27T01:49:36.675Z,80.90
2018-07-27T01:52:05.442Z,81.18
2018-07-27T01:54:34.164Z,81.57
2018-07-27T01:57:02.935Z,81.43
2018-07-27T01:59:31.676Z,81.03
2018-07-27T02:02:00.527Z,81.47
2018-07-27T02:04:29.303Z,81.34
2018-07-27T02:06:58.063Z,81.52
2018-07-27T02:09:26.763Z,80.31
2018-07-27T02:11:55.584Z,79.60
2018-07-27T02:14:24.359Z,79.09
2018-07-27T02:16:53.119Z,79.27
2018-07-27T02:19:21.805Z,79.12
2018-07-27T02:21:50.491Z,78.97
2018-07-27T02:24:19.248Z,78.65
2018-07-27T02:26:47.987Z,79.13
2018-07-27T02:29:16.732Z,78.67
2018-07-27T02:31:45.518Z,78.64
2018-07-27T02:34:14.231Z,79.18
2018-07-27T02:36:42.888Z,78.76
2018-07-27T02:39:12.073Z,78.29
2018-07-27T02:41:41.064Z,78.92
2018-07-27T02:44:10.147Z,79.03
2018-07-27T02:46:38.875Z,79.65
2018-07-27T02:49:07.637Z,79.68
2018-07-27T02:51:36.601Z,79.78
2018-07-27T02:54:05.286Z,79.71
2018-07-27T02:56:34.011Z,79.58
2018-07-27T02:59:02.761Z,80.39
2018-07-27T03:01:31.432Z,80.50
2018-07-27T03:04:00.198Z,80.65
2018-07-27T03:06:28.931Z,80.23
2018-07-27T03:08:57.691Z,79.56
2018-07-27T03:11:26.372Z,78.87
2018-07-27T03:13:55.078Z,78.93
2018-07-27T03:16:23.849Z,78.55
2018-07-27T03:18:52.619Z,79.54
2018-07-27T03:21:21.296Z,79.38
2018-07-27T03:23:50.046Z,80.35
2018-07-27T03:26:18.757Z,80.55
2018-07-27T03:28:47.511Z,81.56
2018-07-27T03:31:16.300Z,81.25
2018-07-27T03:33:45.062Z,82.25
2018-07-27T03:36:13.799Z,81.24
2018-07-27T03:38:42.532Z,81.51
2018-07-27T03:41:12.510Z,81.44
2018-07-27T03:43:41.249Z,80.74
2018-07-27T03:46:10.074Z,81.39
2018-07-27T03:48:38.816Z,81.59
2018-07-27T03:51:07.583Z,81.78
2018-07-27T03:53:36.270Z,82.06
2018-07-27T03:56:05.057Z,81.96
2018-07-27T03:58:33.823Z,81.88
2018-07-27T04:01:02.527Z,81.94
2018-07-27T04:03:31.217Z,81.12
2018-07-27T04:05:59.899Z,81.18
2018-07-27T04:08:28.648Z,80.80
2018-07-27T04:10:57.391Z,79.96
2018-07-27T04:13:26.080Z,80.47
2018-07-27T04:15:54.928Z,80.97
2018-07-27T04:18:23.638Z,80.22
2018-07-27T04:20:52.318Z,80.34
2018-07-27T04:23:21.032Z,80.13
2018-07-27T04:25:49.794Z,80.39
2018-07-27T04:28:18.546Z,80.09
2018-07-27T04:30:47.347Z,80.34
2018-07-27T04:33:16.037Z,81.03
2018-07-27T04:35:44.793Z,80.73
2018-07-27T04:38:13.425Z,81.59
2018-07-27T04:40:42.134Z,81.70
2018-07-27T04:43:10.853Z,82.25
2018-07-27T04:45:39.582Z,81.34
2018-07-27T04:48:08.441Z,81.16
2018-07-27T04:50:37.113Z,81.44
2018-07-27T04:53:06.000Z,80.99
2018-07-27T04:55:34.707Z,80.89
2018-07-27T04:58:03.396Z,80.89
2018-07-27T05:00:32.107Z,80.06
2018-07-27T05:03:00.863Z,79.38
2018-07-27T05:05:29.599Z,80.01
2018-07-27T05:07:58.330Z,78.45
2018-07-27T05:10:32.444Z,79.01
2018-07-27T05:13:01.162Z,79.08
2018-07-27T05:15:29.935Z,79.14
2018-07-27T05:17:58.680Z,79.15
2018-07-27T05:20:27.453Z,80.25
2018-07-27T05:22:56.219Z,79.83
2018-07-27T05:25:24.925Z,78.92
2018-07-27T05:27:53.596Z,78.83
2018-07-27T05:30:22.303Z,79.61
2018-07-27T05:32:51.085Z,78.98
2018-07-27T05:35:19.798Z,79.29
2018-07-27T05:37:48.511Z,78.25
2018-07-27T05:40:17.324Z,77.75
2018-07-27T05:42:46.109Z,78.37
2018-07-27T05:45:14.800Z,78.67
2018-07-27T05:47:43.820Z,77.91
2018-07-27T05:50:12.535Z,78.42
2018-07-27T05:52:41.247Z,78.60
2018-07-27T05:55:10.025Z,78.20
2018-07-27T05:57:38.719Z,77.44
2018-07-27T06:00:08.391Z,77.51
2018-07-27T06:02:37.182Z,77.26
2018-07-27T06:05:06.200Z,77.60
2018-07-27T06:07:34.915Z,77.64
2018-07-27T06:10:03.658Z,77.23
2018-07-27T06:12:32.394Z,77.29
2018-07-27T06:15:01.550Z,77.26
2018-07-27T06:17:30.274Z,76.81
2018-07-27T06:19:58.996Z,76.55
2018-07-27T06:22:28.205Z,76.74
2018-07-27T06:24:56.997Z,76.52
2018-07-27T06:27:25.708Z,75.87
2018-07-27T06:29:56.354Z,76.21
2018-07-27T06:32:25.460Z,75.58
2018-07-27T06:34:54.223Z,75.07
2018-07-27T06:37:23.038Z,74.59
2018-07-27T06:39:51.793Z,74.33
2018-07-27T06:42:20.719Z,74.08
2018-07-27T06:44:49.510Z,73.96
2018-07-27T06:47:18.395Z,74.20
2018-07-27T06:49:47.213Z,73.52
2018-07-27T06:52:15.935Z,72.86
2018-07-27T06:54:44.687Z,71.66
2018-07-27T06:57:13.450Z,70.56
2018-07-27T06:59:42.131Z,69.44
2018-07-27T07:02:10.841Z,68.21
2018-07-27T07:04:39.585Z,66.80
2018-07-27T07:07:08.293Z,66.72
2018-07-27T07:09:37.041Z,65.74
2018-07-27T07:12:05.791Z,64.84
2018-07-27T07:14:34.541Z,62.41
2018-07-27T07:17:03.411Z,62.94
2018-07-27T07:19:32.469Z,62.42
2018-07-27T07:22:01.255Z,60.62
2018-07-27T07:24:30.037Z,59.43
2018-07-27T07:26:58.975Z,59.62
2018-07-27T07:29:27.899Z,59.48
2018-07-27T07:31:56.737Z,59.02
2018-07-27T07:34:25.882Z,58.73
2018-07-27T07:36:55.036Z,57.52
2018-07-27T07:39:23.783Z,56.15
2018-07-27T07:41:54.441Z,55.39
2018-07-27T07:44:24.476Z,54.00
2018-07-27T07:46:53.265Z,55.00
2018-07-27T07:49:22.047Z,54.58
2018-07-27T07:51:50.774Z,54.59
2018-07-27T07:54:19.597Z,54.86
2018-07-27T07:56:48.380Z,53.54
2018-07-27T07:59:17.150Z,53.82
2018-07-27T08:01:45.856Z,54.14
2018-07-27T08:04:14.711Z,53.73
2018-07-27T08:06:43.428Z,55.22
2018-07-27T08:09:12.222Z,54.40
2018-07-27T08:11:41.007Z,54.19
2018-07-27T08:14:09.893Z,55.37
2018-07-27T08:16:38.784Z,55.26
2018-07-27T08:19:07.987Z,54.05
2018-07-27T08:21:36.714Z,52.99
2018-07-27T08:24:05.540Z,53.01
2018-07-27T08:26:40.512Z,52.46
2018-07-27T08:29:10.664Z,53.13
2018-07-27T08:31:40.619Z,52.20
2018-07-27T08:34:09.517Z,50.59
2018-07-27T08:36:38.369Z,49.18
2018-07-27T08:39:08.220Z,48.02
2018-07-27T08:41:37.464Z,48.33
2018-07-27T08:44:08.027Z,49.48
2018-07-27T08:46:36.858Z,47.78
2018-07-27T08:49:06.055Z,47.31
2018-07-27T08:51:35.394Z,47.94
2018-07-27T08:54:04.124Z,46.97
2018-07-27T08:56:33.063Z,47.81
2018-07-27T08:59:01.917Z,46.17
2018-07-27T09:01:30.782Z,45.14
2018-07-27T09:03:59.601Z,45.32
2018-07-27T09:06:28.448Z,45.70
2018-07-27T09:08:57.216Z,45.39
2018-07-27T09:11:29.132Z,43.95
2018-07-27T09:13:58.057Z,42.76
2018-07-27T09:16:27.017Z,43.08
2018-07-27T09:18:55.740Z,41.85
2018-07-27T09:21:24.567Z,40.78
2018-07-27T09:23:55.371Z,41.36
2018-07-27T09:26:24.475Z,39.08
2018-07-27T09:28:53.291Z,37.87
2018-07-27T09:31:22.098Z,36.28
2018-07-27T09:33:50.867Z,37.25
2018-07-27T09:36:19.826Z,36.25
2018-07-27T09:38:48.558Z,36.75
2018-07-27T09:41:17.389Z,37.38
2018-07-27T09:43:46.276Z,37.99
2018-07-27T09:46:15.310Z,38.11
2018-07-27T09:48:48.324Z,38.20
2018-07-27T09:51:17.452Z,36.19
2018-07-27T09:53:46.187Z,38.45
2018-07-27T09:56:15.134Z,39.21
2018-07-27T09:58:44.113Z,40.12
2018-07-27T10:01:19.347Z,40.51
2018-07-27T10:03:48.168Z,39.10
2018-07-27T10:06:16.951Z,38.42
2018-07-27T10:08:45.695Z,37.10
2018-07-27T10:11:14.595Z,36.04
2018-07-27T10:13:43.337Z,35.54
2018-07-27T10:16:12.084Z,36.50
2018-07-27T10:18:40.857Z,37.22
2018-07-27T10:21:09.773Z,38.09
2018-07-27T10:23:38.884Z,38.38
2018-07-27T10:26:07.701Z,37.90
2018-07-27T10:28:36.441Z,37.51
2018-07-27T10:31:05.458Z,38.36
2018-07-27T10:33:34.518Z,39.97
2018-07-27T10:36:03.418Z,40.23
2018-07-27T10:38:32.535Z,40.06
2018-07-27T10:41:01.334Z,40.50
2018-07-27T10:43:30.113Z,40.81
2018-07-27T10:45:58.940Z,40.13
2018-07-27T10:48:27.885Z,38.68
2018-07-27T10:50:56.819Z,38.38
2018-07-27T10:53:25.553Z,37.67
2018-07-27T10:55:54.285Z,38.67
2018-07-27T10:58:23.139Z,37.80
2018-07-27T11:00:51.882Z,37.20
2018-07-27T11:03:20.597Z,36.96
2018-07-27T11:05:49.343Z,38.25
2018-07-27T11:08:18.039Z,38.54
2018-07-27T11:10:46.768Z,39.60
2018-07-27T11:13:15.528Z,41.09
2018-07-27T11:15:44.243Z,40.82
2018-07-27T11:18:12.940Z,40.68
2018-07-27T11:20:41.700Z,40.66
2018-07-27T11:23:10.424Z,40.98
2018-07-27T11:25:39.152Z,40.34
2018-07-27T11:28:07.879Z,40.35
2018-07-27T11:30:36.608Z,40.43
2018-07-27T11:33:05.315Z,39.51
2018-07-27T11:35:34.155Z,41.16
2018-07-27T11:38:03.290Z,41.18
2018-07-27T11:40:32.024Z,41.44
2018-07-27T11:43:00.765Z,42.17
2018-07-27T11:45:29.798Z,42.79
2018-07-27T11:47:58.562Z,42.85
2018-07-27T11:50:27.403Z,43.93
2018-07-27T11:52:56.254Z,43.12
2018-07-27T11:55:24.972Z,42.04
2018-07-27T11:57:53.751Z,40.95
2018-07-27T12:00:22.494Z,41.72
2018-07-27T12:02:51.454Z,40.49
2018-07-27T12:05:20.297Z,39.51
2018-07-27T12:07:48.965Z,38.33
2018-07-27T12:10:17.721Z,38.57
2018-07-27T12:12:46.517Z,38.35
2018-07-27T12:15:15.588Z,37.77
2018-07-27T12:17:44.490Z,38.64
2018-07-27T12:20:13.347Z,37.82
2018-07-27T12:22:42.103Z,36.74
2018-07-27T12:25:10.797Z,36.27
2018-07-27T12:27:39.615Z,36.16
2018-07-27T12:30:08.457Z,35.62
2018-07-27T12:32:37.252Z,35.42
2018-07-27T12:35:06.005Z,34.94
2018-07-27T12:37:34.801Z,34.89
2018-07-27T12:40:03.573Z,34.68
2018-07-27T12:42:32.350Z,33.55
2018-07-27T12:45:01.062Z,33.32
2018-07-27T12:47:29.774Z,33.56
2018-07-27T12:49:58.516Z,31.06
2018-07-27T12:52:27.280Z,30.30
2018-07-27T12:54:56.073Z,30.99
2018-07-27T12:57:24.887Z,31.31
2018-07-27T12:59:53.651Z,30.23
2018-07-27T13:02:22.337Z,29.98
2018-07-27T13:04:51.067Z,29.93
2018-07-27T13:07:19.834Z,30.46
2018-07-27T13:09:48.667Z,30.85
2018-07-27T13:12:17.351Z,29.98
2018-07-27T13:14:46.467Z,30.06
2018-07-27T13:17:15.393Z,30.53
2018-07-27T13:19:44.301Z,30.66
2018-07-27T13:22:13.228Z,31.33
2018-07-27T13:27:10.751Z,33.30
2018-07-27T13:29:39.510Z,32.06
2018-07-27T13:34:45.049Z,34.14
2018-07-27T13:37:14.281Z,32.14
2018-07-27T13:39:43.578Z,32.78
2018-07-27T13:42:13.356Z,31.88
2018-07-27T13:44:42.723Z,32.86
2018-07-27T13:47:11.730Z,32.45
2018-07-27T13:49:40.946Z,32.78
2018-07-27T13:52:10.773Z,32.96
2018-07-27T13:54:39.918Z,34.03
2018-07-27T13:57:08.996Z,34.46
2018-07-27T13:59:37.739Z,34.47
2018-07-27T14:02:06.844Z,33.84
2018-07-27T14:04:35.592Z,34.10
2018-07-27T14:07:05.239Z,34.19
2018-07-27T14:09:34.205Z,34.00
2018-07-27T14:12:02.984Z,34.39
2018-07-27T14:14:31.744Z,34.88
2018-07-27T14:17:00.468Z,34.52
2018-07-27T14:19:29.757Z,35.23
2018-07-27T14:21:58.688Z,34.88
2018-07-27T14:24:27.492Z,34.58
2018-07-27T14:26:56.492Z,34.37
2018-07-27T14:29:25.452Z,35.39
2018-07-27T14:31:54.204Z,36.11
2018-07-27T14:34:23.105Z,36.38
2018-07-27T14:36:51.871Z,35.90
2018-07-27T14:39:20.619Z,35.85
2018-07-27T14:41:49.384Z,35.87
2018-07-27T14:44:18.189Z,35.79
2018-07-27T14:46:46.888Z,37.04
2018-07-27T14:49:16.916Z,36.07
2018-07-27T14:51:45.674Z,36.74
2018-07-27T14:54:15.230Z,36.95
2018-07-27T14:56:44.091Z,37.11
2018-07-27T14:59:13.229Z,37.34
2018-07-27T15:01:42.098Z,38.11
2018-07-27T15:04:11.553Z,38.75
2018-07-27T15:06:40.613Z,39.36
2018-07-27T15:09:14.003Z,39.78
2018-07-27T15:11:43.994Z,39.82
2018-07-27T15:14:12.708Z,39.75
2018-07-27T15:16:41.568Z,39.88
2018-07-27T15:19:10.324Z,39.46
2018-07-27T15:21:39.099Z,39.38
2018-07-27T15:24:07.832Z,40.23
2018-07-27T15:26:36.649Z,40.12
2018-07-27T15:29:05.343Z,40.68
2018-07-27T15:31:34.041Z,40.61
2018-07-27T15:34:02.750Z,40.49
2018-07-27T15:36:31.629Z,40.57
2018-07-27T15:39:00.311Z,40.73
2018-07-27T15:41:29.031Z,39.60
2018-07-27T15:43:57.760Z,39.54
2018-07-27T15:46:26.572Z,38.90
2018-07-27T15:48:55.408Z,38.46
2018-07-27T15:51:24.124Z,37.89
2018-07-27T15:53:52.831Z,38.45
2018-07-27T15:56:21.607Z,38.38
2018-07-27T15:58:50.388Z,38.84
2018-07-27T16:01:19.100Z,39.49
2018-07-27T16:03:47.807Z,39.49
2018-07-27T16:06:16.587Z,39.03
2018-07-27T16:08:45.278Z,39.48
2018-07-27T16:11:14.036Z,40.08
2018-07-27T16:13:42.769Z,40.93
2018-07-27T16:16:11.496Z,40.81
2018-07-27T16:18:40.202Z,40.84
2018-07-27T16:21:08.994Z,41.40
2018-07-27T16:23:37.738Z,41.77
2018-07-27T16:26:06.544Z,42.43
2018-07-27T16:28:35.281Z,43.26
2018-07-27T16:31:03.960Z,42.90
2018-07-27T16:33:32.678Z,43.56
2018-07-27T16:36:01.392Z,43.30
2018-07-27T16:38:30.770Z,44.24
2018-07-27T16:40:59.732Z,44.01
2018-07-27T16:43:28.451Z,45.13
2018-07-27T16:45:57.625Z,45.44
2018-07-27T16:48:26.302Z,45.27
2018-07-27T16:50:55.093Z,46.52
2018-07-27T16:53:23.799Z,46.77
2018-07-27T16:55:52.491Z,47.45
2018-07-27T16:58:21.388Z,47.01
2018-07-27T17:00:50.176Z,47.13
2018-07-27T17:03:18.880Z,47.59
2018-07-27T17:05:47.641Z,47.74
2018-07-27T17:08:16.400Z,47.44
2018-07-27T17:10:45.126Z,47.49
2018-07-27T17:13:13.902Z,47.56
2018-07-27T17:15:42.643Z,47.59
2018-07-27T17:18:11.427Z,47.69
2018-07-27T17:20:40.139Z,48.46
2018-07-27T17:23:08.920Z,48.81
2018-07-27T17:25:37.751Z,48.42
2018-07-27T17:28:06.514Z,47.62
2018-07-27T17:30:35.297Z,47.96
2018-07-27T17:33:04.103Z,48.88
2018-07-27T17:35:32.873Z,48.53
2018-07-27T17:38:01.828Z,48.55
2018-07-27T17:40:30.756Z,47.99
2018-07-27T17:42:59.826Z,47.83
2018-07-27T17:45:28.517Z,47.61
2018-07-27T17:47:57.289Z,47.85
2018-07-27T17:50:27.647Z,47.87
2018-07-27T17:52:57.302Z,48.26
2018-07-27T17:55:26.049Z,49.07
2018-07-27T17:57:55.465Z,48.84
2018-07-27T18:00:24.561Z,49.32
2018-07-27T18:02:53.477Z,50.09
2018-07-27T18:05:22.422Z,50.85
2018-07-27T18:07:51.265Z,50.80
2018-07-27T18:10:19.899Z,51.10
2018-07-27T18:12:48.616Z,51.93
2018-07-27T18:15:17.398Z,51.06
2018-07-27T18:17:46.063Z,51.76
2018-07-27T18:20:14.856Z,52.26
2018-07-27T18:22:43.640Z,52.85
2018-07-27T18:25:14.699Z,53.38
2018-07-27T18:27:43.881Z,53.40
2018-07-27T18:30:13.010Z,53.17
2018-07-27T18:32:41.785Z,53.64
2018-07-27T18:35:10.656Z,53.86
2018-07-27T18:37:39.781Z,53.77
2018-07-27T18:40:09.229Z,54.01
2018-07-27T18:42:38.079Z,53.75
2018-07-27T18:45:07.350Z,53.31
2018-07-27T18:47:36.175Z,52.86
2018-07-27T18:50:05.539Z,53.41
2018-07-27T18:52:34.222Z,52.92
2018-07-27T18:55:03.080Z,52.90
2018-07-27T18:57:31.754Z,52.76
2018-07-27T19:00:00.488Z,53.28
2018-07-27T19:02:29.319Z,53.88
2018-07-27T19:04:58.034Z,54.04
2018-07-27T19:07:26.898Z,54.39
2018-07-27T19:09:55.702Z,55.10
2018-07-27T19:12:24.757Z,55.17
2018-07-27T19:14:53.666Z,56.50
2018-07-27T19:17:22.362Z,56.27
2018-07-27T19:19:51.296Z,57.30
2018-07-27T19:22:20.043Z,58.73
2018-07-27T19:24:48.797Z,59.24
2018-07-27T19:27:17.520Z,59.49
2018-07-27T19:29:46.268Z,60.14
2018-07-27T19:32:14.955Z,60.46
2018-07-27T19:34:43.922Z,60.13
2018-07-27T19:37:12.783Z,61.29
2018-07-27T19:39:41.532Z,61.64
2018-07-27T19:42:10.390Z,61.33
2018-07-27T19:44:39.105Z,61.99
2018-07-27T19:47:07.807Z,62.39
2018-07-27T19:49:36.718Z,63.08
2018-07-27T19:52:05.543Z,63.47
2018-07-27T19:54:34.269Z,64.65
2018-07-27T19:57:02.938Z,64.13
2018-07-27T19:59:31.736Z,64.43
2018-07-27T20:02:00.592Z,64.55
2018-07-27T20:04:29.411Z,65.03
2018-07-27T20:06:58.135Z,65.15
2018-07-27T20:09:26.831Z,65.63
2018-07-27T20:11:55.589Z,65.50
2018-07-27T20:14:24.318Z,65.64
2018-07-27T20:16:53.046Z,66.03
2018-07-27T20:19:21.909Z,65.48
2018-07-27T20:21:50.701Z,65.83
2018-07-27T20:24:19.424Z,66.26
2018-07-27T20:26:48.123Z,66.96
2018-07-27T20:29:17.005Z,67.22
2018-07-27T20:31:45.653Z,67.76
2018-07-27T20:34:14.812Z,67.78
2018-07-27T20:36:43.533Z,68.48
2018-07-27T20:39:13.849Z,68.22
2018-07-27T20:41:43.328Z,68.52
2018-07-27T20:44:12.175Z,68.78
2018-07-27T20:46:41.034Z,68.44
2018-07-27T20:49:10.030Z,69.49
2018-07-27T20:51:39.794Z,69.05
2018-07-27T20:54:09.128Z,69.47
2018-07-27T20:56:37.984Z,69.08
2018-07-27T20:59:07.045Z,69.44
2018-07-27T21:01:35.764Z,69.97
2018-07-27T21:04:04.589Z,70.69
2018-07-27T21:06:33.296Z,70.82
2018-07-27T21:09:02.097Z,70.53
2018-07-27T21:11:30.844Z,70.18
2018-07-27T21:13:59.548Z,70.63
2018-07-27T21:16:28.444Z,71.06
2018-07-27T21:18:59.257Z,70.79
2018-07-27T21:21:28.173Z,70.83
2018-07-27T21:23:57.137Z,70.95
2018-07-27T21:26:25.988Z,71.47
2018-07-27T21:28:54.737Z,71.37
2018-07-27T21:31:23.496Z,71.36
2018-07-27T21:33:52.361Z,71.64
2018-07-27T21:36:21.178Z,70.81
2018-07-27T21:38:50.069Z,71.00
2018-07-27T21:41:18.848Z,71.56
2018-07-27T21:43:47.571Z,70.76
2018-07-27T21:46:16.400Z,70.93
2018-07-27T21:48:45.728Z,70.86
2018-07-27T21:51:14.494Z,71.39
2018-07-27T21:53:43.189Z,71.09
2018-07-27T21:56:11.991Z,71.07
2018-07-27T21:58:40.923Z,71.49
2018-07-27T22:01:09.711Z,71.59
2018-07-27T22:03:38.444Z,71.47
2018-07-27T22:06:07.240Z,71.48
2018-07-27T22:08:35.961Z,72.28
2018-07-27T22:11:04.709Z,72.26
2018-07-27T22:13:33.498Z,72.01
2018-07-27T22:16:02.301Z,72.01
2018-07-27T22:18:31.057Z,72.05
2018-07-27T22:20:59.811Z,72.24
2018-07-27T22:23:28.673Z,71.82
2018-07-27T22:25:57.528Z,72.04
2018-07-27T22:28:26.295Z,72.11
2018-07-27T22:30:55.118Z,71.43
2018-07-27T22:33:24.111Z,72.02
2018-07-27T22:35:52.997Z,72.54
2018-07-27T22:38:21.766Z,72.55
2018-07-27T22:40:50.574Z,72.49
2018-07-27T22:43:19.596Z,72.64
2018-07-27T22:45:48.428Z,72.87
2018-07-27T22:48:17.132Z,72.91
2018-07-27T22:50:46.011Z,72.88
2018-07-27T22:53:14.841Z,72.17
2018-07-27T22:55:45.072Z,72.80
2018-07-27T22:58:14.042Z,72.83
2018-07-27T23:00:42.928Z,73.14
2018-07-27T23:03:11.828Z,73.06
2018-07-27T23:05:40.657Z,72.61
2018-07-27T23:08:09.707Z,72.91
2018-07-27T23:10:38.735Z,73.14
2018-07-27T23:13:07.463Z,72.81
2018-07-27T23:15:36.288Z,72.17
2018-07-27T23:18:06.053Z,72.36
2018-07-27T23:20:35.096Z,72.62
2018-07-27T23:23:03.846Z,72.64
2018-07-27T23:25:33.893Z,73.11
2018-07-27T23:28:02.648Z,73.56
2018-07-27T23:30:31.400Z,73.91
2018-07-27T23:33:00.168Z,75.06
2018-07-27T23:35:28.983Z,75.21
2018-07-27T23:37:57.690Z,75.17
2018-07-27T23:40:26.429Z,75.67
2018-07-27T23:42:55.413Z,75.42
2018-07-27T23:45:24.160Z,74.75
2018-07-27T23:47:53.074Z,74.94
2018-07-27T23:50:21.928Z,75.08
2018-07-27T23:52:50.799Z,75.08
2018-07-27T23:55:19.844Z,74.30
2018-07-27T23:57:48.600Z,73.52
